sensor_id;sensor_type;location;lat;lon;timestamp;pressure;altitude;pressure_sealevel;temperature;humidity
21449;BME280;10885;52.830;13.788;2022-09-09T05:02:32;100650.38;;;15.06;63.34
21449;BME280;10885;52.830;13.788;2022-09-09T05:08:09;100656.56;;;15.10;62.76
21449;BME280;10885;52.830;13.788;2022-09-09T05:13:30;100673.09;;;15.15;62.15
21449;BME280;10885;52.830;13.788;2022-09-09T05:18:53;100668.78;;;15.16;62.11
21449;BME280;10885;52.830;13.788;2022-09-09T05:24:14;100671.50;;;15.19;62.46
21449;BME280;10885;52.830;13.788;2022-09-09T05:29:36;100674.34;;;15.25;62.75
21449;BME280;10885;52.830;13.788;2022-09-09T05:34:59;100676.34;;;15.32;62.63
21449;BME280;10885;52.830;13.788;2022-09-09T05:40:20;100670.59;;;15.39;63.66
21449;BME280;10885;52.830;13.788;2022-09-09T05:45:42;100672.47;;;15.43;62.70
21449;BME280;10885;52.830;13.788;2022-09-09T05:51:06;100667.44;;;15.46;62.48
21449;BME280;10885;52.830;13.788;2022-09-09T05:56:28;100679.03;;;15.58;62.25
21449;BME280;10885;52.830;13.788;2022-09-09T06:01:52;100681.22;;;15.69;61.96
21449;BME280;10885;52.830;13.788;2022-09-09T06:07:19;100683.25;;;15.77;62.23
21449;BME280;10885;52.830;13.788;2022-09-09T06:12:41;100691.59;;;15.92;62.13
21449;BME280;10885;52.830;13.788;2022-09-09T06:18:02;100685.38;;;16.11;62.37
21449;BME280;10885;52.830;13.788;2022-09-09T06:23:24;100680.44;;;16.17;62.22
21449;BME280;10885;52.830;13.788;2022-09-09T06:28:47;100682.59;;;16.29;62.45
21449;BME280;10885;52.830;13.788;2022-09-09T06:34:08;100683.09;;;16.68;62.23
21449;BME280;10885;52.830;13.788;2022-09-09T06:39:33;100677.81;;;16.89;61.46
21449;BME280;10885;52.830;13.788;2022-09-09T06:44:54;100679.19;;;17.05;61.31
21449;BME280;10885;52.830;13.788;2022-09-09T06:50:30;100683.53;;;17.34;61.14
21449;BME280;10885;52.830;13.788;2022-09-09T06:55:51;100687.06;;;17.64;60.95
21449;BME280;10885;52.830;13.788;2022-09-09T07:01:17;100675.06;;;17.95;62.56
21449;BME280;10885;52.830;13.788;2022-09-09T07:06:42;100680.00;;;18.18;61.47
21449;BME280;10885;52.830;13.788;2022-09-09T07:12:12;100693.09;;;18.54;60.33
21449;BME280;10885;52.830;13.788;2022-09-09T07:17:40;100694.09;;;18.91;59.54
21449;BME280;10885;52.830;13.788;2022-09-09T07:23:01;100701.25;;;19.36;59.15
21449;BME280;10885;52.830;13.788;2022-09-09T07:28:23;100720.00;;;19.61;58.64
21449;BME280;10885;52.830;13.788;2022-09-09T07:33:45;100714.91;;;20.05;58.62
21449;BME280;10885;52.830;13.788;2022-09-09T07:39:09;100703.16;;;20.68;57.58
21449;BME280;10885;52.830;13.788;2022-09-09T07:44:31;100706.94;;;21.40;56.78
21449;BME280;10885;52.830;13.788;2022-09-09T07:50:04;100716.63;;;22.10;55.70
21449;BME280;10885;52.830;13.788;2022-09-09T07:55:25;100721.22;;;23.11;54.42
21449;BME280;10885;52.830;13.788;2022-09-09T08:00:47;100707.59;;;23.61;53.40
21449;BME280;10885;52.830;13.788;2022-09-09T08:06:08;100709.78;;;24.51;52.20
21449;BME280;10885;52.830;13.788;2022-09-09T08:11:30;100715.09;;;25.19;50.76
21449;BME280;10885;52.830;13.788;2022-09-09T08:16:58;100728.97;;;25.86;50.17
21449;BME280;10885;52.830;13.788;2022-09-09T08:22:21;100728.47;;;26.92;48.99
21449;BME280;10885;52.830;13.788;2022-09-09T08:27:43;100728.06;;;28.20;47.97
21449;BME280;10885;52.830;13.788;2022-09-09T08:33:04;100729.31;;;29.17;46.99
21449;BME280;10885;52.830;13.788;2022-09-09T08:38:27;100737.47;;;29.54;46.91
21449;BME280;10885;52.830;13.788;2022-09-09T08:43:51;100737.78;;;32.34;45.53
21449;BME280;10885;52.830;13.788;2022-09-09T08:54:50;100755.09;;;40.53;35.06
21449;BME280;10885;52.830;13.788;2022-09-09T09:00:14;100763.00;;;43.45;27.33
21449;BME280;10885;52.830;13.788;2022-09-09T09:11:01;100763.78;;;35.01;32.22
21449;BME280;10885;52.830;13.788;2022-09-09T09:16:38;100754.47;;;31.08;36.07
21449;BME280;10885;52.830;13.788;2022-09-09T09:27:51;100747.38;;;28.21;41.00
21449;BME280;10885;52.830;13.788;2022-09-09T09:38:54;100749.13;;;25.74;44.39
21449;BME280;10885;52.830;13.788;2022-09-09T09:44:37;100750.88;;;27.39;43.72
21449;BME280;10885;52.830;13.788;2022-09-09T09:50:17;100752.66;;;31.10;39.47
21449;BME280;10885;52.830;13.788;2022-09-09T09:55:50;100756.28;;;34.44;35.06
21449;BME280;10885;52.830;13.788;2022-09-09T10:01:30;100752.00;;;38.69;29.55
21449;BME280;10885;52.830;13.788;2022-09-09T10:06:57;100752.44;;;41.46;27.65
21449;BME280;10885;52.830;13.788;2022-09-09T10:24:14;100761.88;;;39.74;23.17
21449;BME280;10885;52.830;13.788;2022-09-09T10:35:33;100751.16;;;33.67;33.33
21449;BME280;10885;52.830;13.788;2022-09-09T10:57:14;100778.03;;;48.56;20.84
21449;BME280;10885;52.830;13.788;2022-09-09T11:02:38;100775.88;;;48.14;20.11
21449;BME280;10885;52.830;13.788;2022-09-09T11:19:11;100761.44;;;38.61;25.02
21449;BME280;10885;52.830;13.788;2022-09-09T11:24:41;100760.66;;;36.71;28.99
21449;BME280;10885;52.830;13.788;2022-09-09T11:30:17;100764.25;;;40.22;24.95
21449;BME280;10885;52.830;13.788;2022-09-09T11:41:40;100747.38;;;33.48;30.97
21449;BME280;10885;52.830;13.788;2022-09-09T11:47:01;100749.38;;;32.61;33.79
21449;BME280;10885;52.830;13.788;2022-09-09T11:52:25;100748.84;;;33.05;33.02
21449;BME280;10885;52.830;13.788;2022-09-09T11:57:59;100746.72;;;32.61;33.41
21449;BME280;10885;52.830;13.788;2022-09-09T12:09:07;100734.31;;;38.01;29.32
21449;BME280;10885;52.830;13.788;2022-09-09T12:14:53;100731.94;;;38.76;28.51
21449;BME280;10885;52.830;13.788;2022-09-09T12:32:14;100707.75;;;33.17;32.40
21449;BME280;10885;52.830;13.788;2022-09-09T12:42:47;100709.31;;;33.96;29.47
21449;BME280;10885;52.830;13.788;2022-09-09T12:48:09;100691.50;;;32.16;30.84
21449;BME280;10885;52.830;13.788;2022-09-09T12:53:37;100691.41;;;32.47;31.51
21449;BME280;10885;52.830;13.788;2022-09-09T12:58:59;100686.75;;;31.96;32.16
21449;BME280;10885;52.830;13.788;2022-09-09T13:04:21;100690.63;;;32.16;32.43
21449;BME280;10885;52.830;13.788;2022-09-09T13:09:46;100693.19;;;31.23;33.08
21449;BME280;10885;52.830;13.788;2022-09-09T13:15:18;100687.22;;;30.42;33.51
21449;BME280;10885;52.830;13.788;2022-09-09T13:20:48;100682.91;;;29.52;34.92
21449;BME280;10885;52.830;13.788;2022-09-09T13:26:23;100691.03;;;29.41;34.62
21449;BME280;10885;52.830;13.788;2022-09-09T13:31:44;100690.72;;;29.08;35.66
21449;BME280;10885;52.830;13.788;2022-09-09T13:37:22;100684.16;;;28.81;36.21
21449;BME280;10885;52.830;13.788;2022-09-09T13:42:44;100686.75;;;28.22;37.09
21449;BME280;10885;52.830;13.788;2022-09-09T13:48:10;100675.09;;;27.69;37.14
21449;BME280;10885;52.830;13.788;2022-09-09T13:53:31;100665.06;;;27.26;38.06
21449;BME280;10885;52.830;13.788;2022-09-09T13:58:52;100662.66;;;26.98;38.34
21449;BME280;10885;52.830;13.788;2022-09-09T14:04:13;100660.00;;;26.99;38.67
21449;BME280;10885;52.830;13.788;2022-09-09T14:09:34;100663.59;;;26.92;38.67
21449;BME280;10885;52.830;13.788;2022-09-09T14:14:55;100672.44;;;26.82;38.87
21449;BME280;10885;52.830;13.788;2022-09-09T14:20:16;100671.72;;;26.57;39.03
21449;BME280;10885;52.830;13.788;2022-09-09T14:25:40;100666.47;;;26.54;39.03
21449;BME280;10885;52.830;13.788;2022-09-09T14:31:03;100672.41;;;26.84;39.15
21449;BME280;10885;52.830;13.788;2022-09-09T14:36:24;100664.44;;;26.96;38.74
21449;BME280;10885;52.830;13.788;2022-09-09T14:41:45;100660.13;;;26.87;38.83
21449;BME280;10885;52.830;13.788;2022-09-09T14:47:07;100646.41;;;26.45;39.18
21449;BME280;10885;52.830;13.788;2022-09-09T14:52:31;100653.59;;;26.15;39.47
21449;BME280;10885;52.830;13.788;2022-09-09T14:57:55;100651.03;;;26.02;40.09
21449;BME280;10885;52.830;13.788;2022-09-09T15:03:16;100657.94;;;26.21;39.84
21449;BME280;10885;52.830;13.788;2022-09-09T15:08:39;100656.22;;;26.18;39.82
21449;BME280;10885;52.830;13.788;2022-09-09T15:14:02;100662.38;;;26.10;39.78
21449;BME280;10885;52.830;13.788;2022-09-09T15:19:23;100661.66;;;25.68;40.00
21449;BME280;10885;52.830;13.788;2022-09-09T15:24:43;100658.28;;;25.27;40.37
21449;BME280;10885;52.830;13.788;2022-09-09T15:30:05;100654.78;;;24.91;41.34
21449;BME280;10885;52.830;13.788;2022-09-09T15:35:26;100653.88;;;24.71;41.11
21449;BME280;10885;52.830;13.788;2022-09-09T15:40:53;100654.69;;;24.40;41.96
21449;BME280;10885;52.830;13.788;2022-09-09T15:46:37;100657.28;;;24.20;41.84
21449;BME280;10885;52.830;13.788;2022-09-09T15:51:59;100659.81;;;23.94;42.20
21449;BME280;10885;52.830;13.788;2022-09-09T15:57:24;100642.34;;;23.86;42.74
21449;BME280;10885;52.830;13.788;2022-09-09T16:02:47;100644.94;;;23.82;42.82
21449;BME280;10885;52.830;13.788;2022-09-09T16:08:07;100649.25;;;23.76;42.38
21449;BME280;10885;52.830;13.788;2022-09-09T16:13:28;100646.56;;;23.65;42.65
21449;BME280;10885;52.830;13.788;2022-09-09T16:18:55;100661.34;;;23.52;43.03
21449;BME280;10885;52.830;13.788;2022-09-09T16:24:18;100668.16;;;23.27;43.19
21449;BME280;10885;52.830;13.788;2022-09-09T16:29:40;100667.19;;;23.13;43.62
21449;BME280;10885;52.830;13.788;2022-09-09T16:35:00;100662.72;;;23.01;43.67
21449;BME280;10885;52.830;13.788;2022-09-09T16:40:21;100666.94;;;22.82;44.18
21449;BME280;10885;52.830;13.788;2022-09-09T16:45:43;100664.16;;;22.65;44.43
21449;BME280;10885;52.830;13.788;2022-09-09T16:51:11;100664.00;;;22.47;44.81
21449;BME280;10885;52.830;13.788;2022-09-09T16:56:39;100667.28;;;22.29;45.32
21449;BME280;10885;52.830;13.788;2022-09-09T17:02:03;100667.03;;;22.12;45.23
21449;BME280;10885;52.830;13.788;2022-09-09T17:07:25;100654.69;;;21.95;45.22
21449;BME280;10885;52.830;13.788;2022-09-09T17:12:46;100656.25;;;21.81;45.44
21449;BME280;10885;52.830;13.788;2022-09-09T17:18:07;100662.19;;;21.69;45.80
21449;BME280;10885;52.830;13.788;2022-09-09T17:23:28;100669.78;;;21.51;46.17
21449;BME280;10885;52.830;13.788;2022-09-09T17:28:49;100663.31;;;21.27;46.27
21449;BME280;10885;52.830;13.788;2022-09-09T17:34:10;100657.00;;;21.11;46.67
21449;BME280;10885;52.830;13.788;2022-09-09T17:39:32;100650.63;;;20.94;46.94
21449;BME280;10885;52.830;13.788;2022-09-09T17:44:52;100652.94;;;20.77;47.21
21449;BME280;10885;52.830;13.788;2022-09-09T17:50:13;100662.34;;;20.69;47.38
21449;BME280;10885;52.830;13.788;2022-09-09T17:55:34;100662.94;;;20.54;47.23
21449;BME280;10885;52.830;13.788;2022-09-09T18:00:55;100670.50;;;20.40;47.88
21449;BME280;10885;52.830;13.788;2022-09-09T18:06:21;100658.84;;;20.21;48.21
21449;BME280;10885;52.830;13.788;2022-09-09T18:11:46;100668.19;;;20.10;48.04
21449;BME280;10885;52.830;13.788;2022-09-09T18:17:08;100660.13;;;19.97;48.16
21449;BME280;10885;52.830;13.788;2022-09-09T18:22:29;100674.44;;;19.77;48.46
21449;BME280;10885;52.830;13.788;2022-09-09T18:27:51;100677.59;;;19.63;48.72
21449;BME280;10885;52.830;13.788;2022-09-09T18:33:13;100683.38;;;19.50;48.92
21449;BME280;10885;52.830;13.788;2022-09-09T18:38:34;100689.22;;;19.40;49.17
21449;BME280;10885;52.830;13.788;2022-09-09T18:44:01;100693.13;;;19.22;49.65
21449;BME280;10885;52.830;13.788;2022-09-09T18:49:23;100704.16;;;19.14;49.69
21449;BME280;10885;52.830;13.788;2022-09-09T18:54:44;100713.53;;;19.07;49.86
21449;BME280;10885;52.830;13.788;2022-09-09T19:00:08;100732.38;;;18.98;49.99
21449;BME280;10885;52.830;13.788;2022-09-09T19:05:30;100744.28;;;18.90;49.91
21449;BME280;10885;52.830;13.788;2022-09-09T19:10:51;100743.31;;;18.86;49.95
21449;BME280;10885;52.830;13.788;2022-09-09T19:16:13;100744.56;;;18.69;50.70
21449;BME280;10885;52.830;13.788;2022-09-09T19:21:37;100740.75;;;18.56;50.71
21449;BME280;10885;52.830;13.788;2022-09-09T19:27:00;100744.81;;;18.46;50.88
21449;BME280;10885;52.830;13.788;2022-09-09T19:32:21;100736.88;;;18.40;51.14
21449;BME280;10885;52.830;13.788;2022-09-09T19:38:02;100728.88;;;18.33;51.05
21449;BME280;10885;52.830;13.788;2022-09-09T19:43:23;100734.00;;;18.31;51.10
21449;BME280;10885;52.830;13.788;2022-09-09T19:48:45;100735.41;;;18.20;51.14
21449;BME280;10885;52.830;13.788;2022-09-09T19:54:08;100724.06;;;18.16;50.89
21449;BME280;10885;52.830;13.788;2022-09-09T19:59:30;100726.28;;;18.04;50.97
21449;BME280;10885;52.830;13.788;2022-09-09T20:04:51;100719.22;;;17.98;51.30
21449;BME280;10885;52.830;13.788;2022-09-09T20:10:12;100718.91;;;17.87;51.42
21449;BME280;10885;52.830;13.788;2022-09-09T20:15:32;100727.47;;;17.85;51.61
21449;BME280;10885;52.830;13.788;2022-09-09T20:21:03;100731.66;;;17.81;52.04
21449;BME280;10885;52.830;13.788;2022-09-09T20:26:27;100744.44;;;17.75;51.72
21449;BME280;10885;52.830;13.788;2022-09-09T20:31:50;100746.84;;;17.69;51.55
21449;BME280;10885;52.830;13.788;2022-09-09T20:37:11;100745.00;;;17.66;51.78
21449;BME280;10885;52.830;13.788;2022-09-09T20:42:33;100766.16;;;17.52;51.50
21449;BME280;10885;52.830;13.788;2022-09-09T20:47:54;100751.88;;;17.37;51.71
21449;BME280;10885;52.830;13.788;2022-09-09T20:53:16;100745.59;;;17.29;52.13
21449;BME280;10885;52.830;13.788;2022-09-09T20:58:37;100747.66;;;17.14;52.51
21449;BME280;10885;52.830;13.788;2022-09-09T21:03:58;100731.00;;;17.05;52.41
21449;BME280;10885;52.830;13.788;2022-09-09T21:09:20;100719.44;;;16.96;52.32
21449;BME280;10885;52.830;13.788;2022-09-09T21:14:44;100716.84;;;16.96;52.74
21449;BME280;10885;52.830;13.788;2022-09-09T21:20:05;100720.00;;;16.87;52.79
21449;BME280;10885;52.830;13.788;2022-09-09T21:25:26;100711.09;;;16.80;52.90
21449;BME280;10885;52.830;13.788;2022-09-09T21:30:51;100709.41;;;16.81;52.87
21449;BME280;10885;52.830;13.788;2022-09-09T21:36:14;100717.06;;;16.78;52.76
21449;BME280;10885;52.830;13.788;2022-09-09T21:41:35;100717.53;;;16.66;52.94
21449;BME280;10885;52.830;13.788;2022-09-09T21:46:56;100726.00;;;16.62;54.45
21449;BME280;10885;52.830;13.788;2022-09-09T21:52:16;100733.56;;;16.56;53.50
21449;BME280;10885;52.830;13.788;2022-09-09T21:57:37;100736.19;;;16.57;54.49
